マヘ島 の空港の天気 - METARとTAF

セーシェル国際空港 ( FSIA / SEZ ) - セーシェル マヘ島
飛行場実況気象(Metar)
観測時間05/27 04:00 SCT (05/27 00:00 UTC)
風向・風速南東 5m/s
視程10km以上
天気現象
全天の4割程度の雲 雲底高度 580m
全天の4割程度の雲 雲底高度 1370m
気温28℃
湿度79%
気圧1011hPa
METARFSIA 270000Z 14010KT 9999 SCT019 SCT045 28/24 Q1011 NOSIG
過去の天気等 Google飛行場航空写真 Wunderground天気予報

過去48時間のMETAR

飛行場予報(TAF)
発表時間: 5/27 03:01 SCT (5/26 23:01 UTC)
予報対象時間: 27日4時 SCT ~ 28日4時 SCT
風向・風速東南東 8m/s 瞬間風速 13m/s
視程10km以上
全天の4割程度の雲 雲底高度 670m
27日12時 SCT ~ 27日16時 SCT に 確率 40% で一時的に
天気現象弱いしゅう雨
少しの雲 雲底高度 430m
全天の8割程度の雲 雲底高度 550m
TAF FSIA 262301Z 2700/2724 12015G25KT 9999 SCT022
PROB40 TEMPO 2708/2712 -SHRA FEW014 BKN018